Time;durP1;ratioP1;P1;durP2;ratioP2;P2;SDS_P1;SDS_P2;PMS_P1;PMS_P2;Temp;Humidity;BMP_temperature;BMP_pressure;BME280_temperature;BME280_humidity;BME280_pressure;Samples;Min_cycle;Max_cycle;Signal;HPM_P1;HPM_P2
2021/01/03 00:00:45;;;;;;;20.45;14.82;;;;;;;18.49;24.93;94598.94;5095392;28;20055;-49
2021/01/03 00:03:14;;;;;;;24.02;18.38;;;;;;;18.10;25.39;94596.88;5093823;28;20055;-48
2021/01/03 00:05:41;;;;;;;24.95;17.00;;;;;;;18.30;25.16;94601.34;5055360;28;20132;-47
2021/01/03 00:08:08;;;;;;;22.20;16.40;;;;;;;18.26;25.74;94594.38;5086327;28;20060;-50
2021/01/03 00:10:35;;;;;;;22.95;17.05;;;;;;;18.53;25.00;94599.03;5074317;28;20056;-50
2021/01/03 00:13:02;;;;;;;19.23;15.02;;;;;;;18.54;25.39;94602.47;5067083;28;20047;-47
2021/01/03 00:15:29;;;;;;;22.20;16.50;;;;;;;18.72;25.07;94601.16;5075151;28;20344;-52
2021/01/03 00:17:57;;;;;;;23.05;17.27;;;;;;;18.72;24.89;94596.63;5075346;28;20063;-50
2021/01/03 00:20:27;;;;;;;21.40;17.58;;;;;;;18.66;24.86;94602.47;5092741;28;20052;-48
2021/01/03 00:22:54;;;;;;;23.60;16.52;;;;;;;19.05;24.83;94593.88;5095188;28;20496;-48
2021/01/03 00:25:25;;;;;;;22.77;16.40;;;;;;;18.84;24.81;94603.03;5095251;28;20056;-48
2021/01/03 00:27:53;;;;;;;22.85;16.70;;;;;;;18.93;24.77;94607.13;5095161;28;20051;-47
2021/01/03 00:30:24;;;;;;;22.73;16.45;;;;;;;18.77;24.85;94595.66;5094721;28;20058;-47
2021/01/03 00:32:52;;;;;;;25.08;20.23;;;;;;;18.79;24.89;94588.94;5094348;28;20051;-47
2021/01/03 00:35:27;;;;;;;22.30;17.15;;;;;;;18.43;25.41;94579.06;5094921;28;20056;-51
2021/01/03 00:37:58;;;;;;;20.88;16.02;;;;;;;18.93;24.77;94583.28;5111086;28;20051;-47
2021/01/03 00:40:26;;;;;;;19.98;16.58;;;;;;;18.73;25.34;94578.88;5097140;28;20618;-49
2021/01/03 00:42:54;;;;;;;22.63;17.95;;;;;;;18.86;25.44;94580.41;5094987;28;20055;-48
2021/01/03 00:45:21;;;;;;;215.20;179.60;;;;;;;18.85;25.40;94578.88;5094914;28;20374;-53
2021/01/03 00:47:49;;;;;;;25.48;20.08;;;;;;;18.91;25.03;94574.88;5094091;28;20056;-48
2021/01/03 00:50:16;;;;;;;22.52;16.55;;;;;;;18.80;25.27;94576.47;5094794;28;20047;-47
2021/01/03 00:52:43;;;;;;;20.58;16.40;;;;;;;18.69;25.40;94575.34;5094547;28;20051;-47
2021/01/03 00:55:11;;;;;;;20.73;15.52;;;;;;;18.78;25.37;94574.13;5094610;28;20056;-48
2021/01/03 00:57:39;;;;;;;19.15;15.00;;;;;;;18.67;25.48;94574.91;5094584;28;20048;-50
2021/01/03 01:00:25;;;;;;;20.98;15.82;;;;;;;18.63;25.72;94566.09;5094148;28;20047;-51
2021/01/03 01:02:56;;;;;;;18.13;14.57;;;;;;;18.62;25.88;94565.31;5094622;28;20059;-49
2021/01/03 01:05:24;;;;;;;18.65;14.73;;;;;;;18.94;25.41;94565.50;5094507;28;20055;-48
2021/01/03 01:07:51;;;;;;;18.70;15.20;;;;;;;18.90;25.70;94560.09;5108921;28;20047;-48
2021/01/03 01:10:23;;;;;;;17.63;13.95;;;;;;;19.08;25.57;94557.97;5097740;28;20059;-47
2021/01/03 01:12:51;;;;;;;17.15;14.05;;;;;;;19.18;25.50;94554.09;5094862;28;20051;-47
2021/01/03 01:15:20;;;;;;;18.52;14.57;;;;;;;19.13;25.70;94543.72;5113548;28;20056;-49
2021/01/03 01:17:53;;;;;;;18.27;14.38;;;;;;;19.40;25.58;94535.03;5114505;28;20048;-49
2021/01/03 01:20:22;;;;;;;18.20;14.48;;;;;;;19.45;25.82;94542.72;5114507;28;20055;-53
2021/01/03 01:22:50;;;;;;;18.13;14.27;;;;;;;19.90;25.48;94539.78;5085489;28;20044;-50
2021/01/03 01:25:21;;;;;;;17.75;14.00;;;;;;;19.69;25.78;94537.34;5087597;28;20090;-48
2021/01/03 01:27:48;;;;;;;21.38;14.05;;;;;;;19.79;25.62;94530.03;5114488;28;20824;-48
2021/01/03 01:30:15;;;;;;;20.27;15.55;;;;;;;19.68;25.74;94530.50;5114440;28;20059;-49
2021/01/03 01:32:43;;;;;;;17.92;15.05;;;;;;;19.90;25.46;94518.56;5098631;28;20052;-50
2021/01/03 01:35:14;;;;;;;20.55;14.82;;;;;;;19.50;26.58;94512.56;5079092;28;20047;-49
2021/01/03 01:37:41;;;;;;;18.00;14.63;;;;;;;19.62;26.38;94520.50;5113703;28;20046;-49
2021/01/03 01:40:11;;;;;;;18.38;14.90;;;;;;;19.62;26.23;94521.25;5113942;28;20047;-48
2021/01/03 01:42:39;;;;;;;20.10;15.32;;;;;;;19.95;26.55;94522.84;5114309;28;20047;-47
2021/01/03 01:45:11;;;;;;;18.63;15.15;;;;;;;19.86;26.28;94514.28;5113807;28;20051;-47
2021/01/03 01:47:40;;;;;;;19.90;15.50;;;;;;;20.55;25.49;94507.63;5114290;28;20048;-48
2021/01/03 01:50:10;;;;;;;19.58;15.48;;;;;;;19.90;26.32;94505.31;5090198;28;20056;-49
2021/01/03 01:52:43;;;;;;;19.13;15.65;;;;;;;20.67;25.85;94494.25;5056318;28;20048;-53
2021/01/03 01:55:20;;;;;;;20.75;16.15;;;;;;;20.22;25.95;94500.78;5063779;28;20051;-48
2021/01/03 01:57:52;;;;;;;22.23;17.52;;;;;;;19.70;26.34;94501.78;5064424;28;20049;-49
2021/01/03 02:00:25;;;;;;;21.65;17.38;;;;;;;19.59;26.16;94499.97;5055439;28;20455;-48
2021/01/03 02:03:27;;;;;;;22.80;18.30;;;;;;;18.99;26.71;94497.16;5055999;28;20041;-51
2021/01/03 02:06:05;;;;;;;25.63;18.13;;;;;;;19.26;26.22;94497.53;5065809;28;20484;-50
2021/01/03 02:08:52;;;;;;;23.40;17.42;;;;;;;18.94;26.46;94494.75;5073265;28;20064;-51
2021/01/03 02:11:23;;;;;;;23.45;17.83;;;;;;;18.63;26.90;94497.25;5072980;28;20048;-49
2021/01/03 02:13:54;;;;;;;22.70;17.10;;;;;;;18.73;26.92;94494.13;5064177;28;20443;-49
2021/01/03 02:16:23;;;;;;;23.17;17.45;;;;;;;19.01;26.42;94491.56;5073639;28;20064;-47
2021/01/03 02:18:52;;;;;;;22.73;16.75;;;;;;;18.77;26.59;94482.56;5073364;28;20470;-49
2021/01/03 02:21:37;;;;;;;21.98;17.48;;;;;;;18.68;26.95;94483.78;5073104;28;20052;-48
2021/01/03 02:24:29;;;;;;;22.42;16.38;;;;;;;18.89;26.83;94484.41;5059459;28;20059;-49
2021/01/03 02:27:11;;;;;;;22.05;17.15;;;;;;;18.74;27.08;94479.81;5079834;28;20473;-48
2021/01/03 02:29:38;;;;;;;21.98;16.63;;;;;;;18.96;26.80;94478.53;5079432;28;20052;-49
2021/01/03 02:32:06;;;;;;;20.70;16.77;;;;;;;18.54;27.34;94478.81;5097228;28;20381;-50
2021/01/03 02:34:41;;;;;;;22.65;17.67;;;;;;;18.83;27.07;94488.38;5097039;28;20098;-50
2021/01/03 02:37:11;;;;;;;23.98;17.80;;;;;;;18.80;27.33;94486.41;5096937;28;20055;-48
2021/01/03 02:39:50;;;;;;;28.45;20.05;;;;;;;18.67;27.41;94461.03;5079159;28;20047;-48
2021/01/03 02:42:29;;;;;;;24.30;18.55;;;;;;;19.29;26.89;94479.09;5097083;28;20052;-50
2021/01/03 02:44:57;;;;;;;27.15;19.15;;;;;;;19.28;27.05;94479.44;5086771;28;20067;-51
2021/01/03 02:47:30;;;;;;;22.83;17.30;;;;;;;19.68;26.59;94482.00;5056734;28;20055;-49
2021/01/03 02:49:57;;;;;;;;;;;;;;;19.69;26.76;94478.25;5039530;28;20059;-51
2021/01/03 02:52:36;;;;;;;19.73;16.48;;;;;;;20.10;26.57;94478.88;5056807;28;19927;-49
2021/01/03 02:55:04;;;;;;;19.05;15.60;;;;;;;20.14;26.12;94483.16;5065458;28;20052;-50
2021/01/03 02:57:31;;;;;;;21.17;17.00;;;;;;;19.97;26.47;94489.56;5076557;28;20049;-48
2021/01/03 02:59:58;;;;;;;24.90;18.13;;;;;;;19.80;26.51;94486.47;5076222;28;20060;-49
2021/01/03 03:02:25;;;;;;;20.70;17.08;;;;;;;20.14;26.48;94479.72;5096675;28;20493;-51
2021/01/03 03:04:53;;;;;;;20.80;16.40;;;;;;;20.17;26.22;94479.03;5096356;28;20352;-51
2021/01/03 03:07:20;;;;;;;19.40;14.65;;;;;;;20.96;25.34;94484.22;5090794;28;20044;-49
2021/01/03 03:09:47;;;;;;;23.00;16.52;;;;;;;20.16;26.42;94491.53;5056181;28;20064;-52
2021/01/03 03:12:14;;;;;;;20.55;16.17;;;;;;;20.00;26.57;94493.41;5056384;28;20053;-49
2021/01/03 03:14:41;;;;;;;18.45;14.50;;;;;;;20.20;26.60;94487.06;5076607;28;20139;-48
2021/01/03 03:17:08;;;;;;;21.15;15.02;;;;;;;20.41;26.18;94486.06;5096595;28;20055;-49
2021/01/03 03:19:35;;;;;;;17.67;13.70;;;;;;;21.55;24.89;94481.97;5096445;28;20047;-47
2021/01/03 03:22:03;;;;;;;18.70;14.65;;;;;;;21.70;24.43;94479.59;5084453;28;20331;-51
2021/01/03 03:24:30;;;;;;;19.67;14.75;;;;;;;20.94;25.46;94477.38;5079554;28;20366;-50
2021/01/03 03:27:00;;;;;;;16.05;13.23;;;;;;;21.16;25.24;94493.75;5096430;28;20052;-48
2021/01/03 03:29:28;;;;;;;17.10;14.30;;;;;;;21.35;25.01;94475.16;5096304;28;20458;-48
2021/01/03 03:31:56;;;;;;;19.73;16.15;;;;;;;20.61;25.91;94477.03;5096031;28;20048;-47
2021/01/03 03:34:24;;;;;;;18.88;14.75;;;;;;;20.46;26.75;94477.81;5095013;28;20047;-48
2021/01/03 03:36:55;;;;;;;17.88;14.55;;;;;;;20.63;26.35;94475.56;5092027;28;20054;-49
2021/01/03 03:39:23;;;;;;;17.13;14.02;;;;;;;20.48;26.40;94472.94;5099599;28;20052;-48
2021/01/03 03:41:54;;;;;;;18.02;14.90;;;;;;;20.21;27.29;94466.63;5095761;28;20043;-51
2021/01/03 03:44:22;;;;;;;16.83;13.18;;;;;;;20.47;26.71;94466.88;5095765;28;20051;-49
2021/01/03 03:46:54;;;;;;;17.27;13.60;;;;;;;20.39;26.99;94467.78;5095964;28;20059;-48
2021/01/03 03:49:21;;;;;;;16.35;13.68;;;;;;;20.08;27.34;94470.50;5095973;28;20366;-50
2021/01/03 03:51:55;;;;;;;18.20;15.23;;;;;;;19.75;27.55;94465.50;5095628;28;20347;-50
2021/01/03 03:54:23;;;;;;;16.85;14.32;;;;;;;19.71;27.59;94460.88;5089149;28;20052;-50
2021/01/03 03:56:52;;;;;;;17.55;14.88;;;;;;;19.48;27.87;94462.53;5095710;28;20055;-49
2021/01/03 03:59:20;;;;;;;19.83;16.02;;;;;;;19.34;28.00;94459.50;5095833;28;20055;-50
2021/01/03 04:01:47;;;;;;;18.20;14.65;;;;;;;19.64;27.95;94466.00;5077563;28;20060;-48
2021/01/03 04:04:15;;;;;;;19.60;15.85;;;;;;;19.72;27.99;94464.28;5075351;28;20087;-49
2021/01/03 04:06:42;;;;;;;18.10;15.68;;;;;;;19.48;28.54;94457.22;5083504;28;20058;-48
2021/01/03 04:09:09;;;;;;;18.38;15.57;;;;;;;19.42;28.62;94459.34;5097941;28;20044;-50
2021/01/03 04:11:40;;;;;;;21.33;16.80;;;;;;;19.34;28.78;94467.47;5115706;28;20055;-48
2021/01/03 04:14:09;;;;;;;21.52;16.02;;;;;;;19.50;28.44;94465.59;5115880;28;20059;-48
2021/01/03 04:16:42;;;;;;;20.98;15.90;;;;;;;19.56;28.69;94468.81;5095752;28;20473;-50
2021/01/03 04:19:09;;;;;;;19.42;15.07;;;;;;;19.31;29.34;94462.84;5095433;28;20044;-49
2021/01/03 04:21:37;;;;;;;20.95;16.23;;;;;;;19.06;29.88;94468.25;5094901;28;20513;-47
2021/01/03 04:24:04;;;;;;;20.52;16.50;;;;;;;19.37;29.29;94469.44;5095293;28;20549;-47
2021/01/03 04:26:31;;;;;;;21.52;16.55;;;;;;;19.42;29.47;94469.94;5095080;28;20047;-49
2021/01/03 04:28:58;;;;;;;20.67;16.60;;;;;;;19.20;29.91;94462.53;5095263;28;20052;-49
2021/01/03 04:31:25;;;;;;;22.08;15.48;;;;;;;19.46;29.04;94462.09;5095007;28;20047;-47
2021/01/03 04:33:53;;;;;;;24.73;17.40;;;;;;;19.25;29.44;94462.28;5095148;28;20058;-46
2021/01/03 04:36:20;;;;;;;25.63;20.92;;;;;;;19.33;29.74;94471.22;5097549;28;20054;-50
2021/01/03 04:38:47;;;;;;;40.90;28.55;;;;;;;19.37;29.61;94472.09;5115619;28;20055;-47
2021/01/03 04:41:27;;;;;;;36.53;27.30;;;;;;;19.08;30.33;94476.63;5115178;28;20354;-49
2021/01/03 04:44:00;;;;;;;26.17;20.17;;;;;;;19.23;30.18;94477.00;5114997;28;20047;-49
2021/01/03 04:46:34;;;;;;;29.38;21.17;;;;;;;19.41;29.66;94481.66;5089257;28;20059;-48
2021/01/03 04:49:04;;;;;;;22.67;18.45;;;;;;;19.41;29.75;94475.59;5094769;28;20047;-49
2021/01/03 04:51:43;;;;;;;22.00;17.55;;;;;;;19.36;29.91;94470.53;5076655;28;20059;-48
2021/01/03 04:54:11;;;;;;;21.02;17.10;;;;;;;19.42;29.84;94475.25;5076796;28;20051;-48
2021/01/03 04:56:41;;;;;;;20.77;17.58;;;;;;;19.62;29.52;94481.50;5094367;28;20051;-53
2021/01/03 04:59:24;;;;;;;19.75;16.75;;;;;;;19.53;29.69;94480.09;5094557;28;20062;-47
2021/01/03 05:02:10;;;;;;;16.98;14.32;;;;;;;19.49;29.49;94479.97;5094409;28;20374;-49
2021/01/03 05:04:55;;;;;;;17.00;14.52;;;;;;;19.51;29.09;94479.63;5095841;28;20060;-47
2021/01/03 05:07:32;;;;;;;19.45;14.40;;;;;;;19.40;29.06;94477.47;5114503;28;20342;-49
2021/01/03 05:10:23;;;;;;;16.80;14.48;;;;;;;19.38;29.31;94482.34;5114674;28;20048;-49
2021/01/03 05:13:03;;;;;;;19.10;14.18;;;;;;;19.50;29.15;94486.03;5114482;28;20047;-48
2021/01/03 05:15:35;;;;;;;18.95;13.95;;;;;;;19.17;29.54;94483.66;5105768;28;20052;-47
2021/01/03 05:18:04;;;;;;;17.50;14.48;;;;;;;19.28;29.29;94487.38;5094395;28;20048;-50
2021/01/03 05:20:31;;;;;;;18.00;14.30;;;;;;;19.18;29.27;94483.31;5094180;28;20063;-46
2021/01/03 05:23:19;;;;;;;20.08;16.48;;;;;;;18.99;29.54;94475.97;5094050;28;20048;-49
2021/01/03 05:25:48;;;;;;;20.80;16.38;;;;;;;18.93;29.73;94479.97;5093910;28;20047;-50
2021/01/03 05:28:29;;;;;;;22.70;17.77;;;;;;;18.84;29.86;94474.03;5085705;28;20040;-52
2021/01/03 05:31:09;;;;;;;21.02;17.40;;;;;;;19.04;29.78;94481.06;5073925;28;20049;-48
2021/01/03 05:33:36;;;;;;;22.17;17.98;;;;;;;19.21;29.35;94479.22;5073819;28;20059;-76
2021/01/03 05:36:21;;;;;;;22.08;18.17;;;;;;;18.88;29.97;94476.78;5086749;28;20398;-48
2021/01/03 05:38:48;;;;;;;23.65;18.63;;;;;;;19.08;29.60;94476.63;5096566;28;20059;-47
2021/01/03 05:41:19;;;;;;;23.38;18.55;;;;;;;19.03;29.92;94479.50;5114107;28;20043;-48
2021/01/03 05:43:54;;;;;;;21.33;18.25;;;;;;;18.81;30.03;94487.94;5105227;28;20063;-50
2021/01/03 05:46:31;;;;;;;20.75;17.42;;;;;;;18.88;30.04;94477.56;5093565;28;20051;-49
2021/01/03 05:49:11;;;;;;;23.48;17.45;;;;;;;19.05;29.72;94476.53;5075694;28;20063;-49
2021/01/03 05:51:47;;;;;;;25.40;18.25;;;;;;;18.79;30.16;94479.56;5075518;28;20745;-50
2021/01/03 05:54:21;;;;;;;21.33;17.58;;;;;;;19.07;29.82;94485.69;5094072;28;20056;-46
2021/01/03 05:56:49;;;;;;;20.23;17.23;;;;;;;18.94;30.05;94486.81;5095900;28;20056;-48
2021/01/03 05:59:29;;;;;;;20.83;16.55;;;;;;;19.27;29.66;94488.47;5080303;28;20056;-48
2021/01/03 06:02:08;;;;;;;21.40;16.17;;;;;;;19.03;29.90;94495.41;5079697;28;20047;-48
2021/01/03 06:04:36;;;;;;;20.52;16.35;;;;;;;18.99;30.02;94488.44;5098022;28;20067;-49
2021/01/03 06:07:21;;;;;;;22.45;16.70;;;;;;;19.13;30.02;94493.38;5106678;28;20054;-50
2021/01/03 06:09:49;;;;;;;21.70;16.33;;;;;;;19.02;30.15;94493.88;5117957;28;20063;-48
2021/01/03 06:12:20;;;;;;;20.00;15.80;;;;;;;19.05;30.07;94487.13;5101845;28;20374;-50
2021/01/03 06:15:02;;;;;;;19.58;16.50;;;;;;;19.26;29.79;94497.53;5113838;28;20055;-49
2021/01/03 06:17:33;;;;;;;20.90;16.98;;;;;;;19.13;30.04;94493.38;5100238;28;20052;-49
2021/01/03 06:20:27;;;;;;;20.98;16.70;;;;;;;19.37;29.60;94501.25;5118211;28;20062;-50
2021/01/03 06:23:01;;;;;;;;;;;;;;;19.39;29.61;94491.84;5076066;28;20710;-49
2021/01/03 06:25:34;;;;;;;21.23;16.33;;;;;;;19.42;29.54;94501.00;5077372;28;19920;-47
2021/01/03 06:28:13;;;;;;;21.25;16.42;;;;;;;19.39;29.76;94504.31;5059626;28;20052;-48
2021/01/03 06:30:50;;;;;;;19.98;16.45;;;;;;;19.35;29.90;94511.41;5081213;28;20056;-49
2021/01/03 06:33:32;;;;;;;22.92;17.23;;;;;;;19.19;30.00;94518.53;5099923;28;20043;-48
2021/01/03 06:36:15;;;;;;;19.15;15.40;;;;;;;19.41;29.95;94516.13;5117554;28;20051;-48
2021/01/03 06:38:48;;;;;;;;;;;;;;;19.31;30.02;94511.31;5100263;28;20055;-51
2021/01/03 06:41:41;;;;;;;18.75;15.00;;;;;;;19.57;29.53;94508.25;5092559;28;20311;-49
2021/01/03 06:44:18;;;;;;;23.15;18.83;;;;;;;19.52;29.55;94505.81;5097163;28;20056;-46
2021/01/03 06:46:45;;;;;;;24.00;20.48;;;;;;;19.74;29.30;94511.69;5097274;28;20052;-49
2021/01/03 06:49:46;;;;;;;25.73;20.13;;;;;;;19.52;29.63;94519.09;5097281;28;20332;-49
2021/01/03 06:52:39;;;;;;;28.60;20.35;;;;;;;19.35;29.75;94517.47;5111497;28;20039;-50
2021/01/03 06:55:25;;;;;;;26.13;20.60;;;;;;;19.56;29.66;94505.94;5117461;28;20047;-49
2021/01/03 06:58:06;;;;;;;23.60;19.05;;;;;;;19.36;29.98;94518.25;5099357;28;20048;-47
2021/01/03 07:00:43;;;;;;;23.45;19.38;;;;;;;19.47;29.85;94519.31;5116871;28;20482;-49
2021/01/03 07:03:25;;;;;;;21.52;18.60;;;;;;;19.74;29.65;94511.69;5117272;28;20058;-48
2021/01/03 07:06:01;;;;;;;22.25;17.70;;;;;;;19.28;30.46;94516.53;5082434;28;20047;-52
2021/01/03 07:08:56;;;;;;;21.73;17.85;;;;;;;19.57;30.20;94523.41;5076303;28;20053;-49
2021/01/03 07:11:38;;;;;;;27.02;22.35;;;;;;;19.57;29.96;94507.50;5089732;28;20055;-52
2021/01/03 07:14:08;;;;;;;24.87;21.07;;;;;;;19.73;29.68;94510.16;5117072;28;20051;-50
2021/01/03 07:16:46;;;;;;;21.52;17.45;;;;;;;20.46;28.54;94515.78;5099124;28;20043;-48
2021/01/03 07:19:18;;;;;;;20.98;15.88;;;;;;;21.14;27.20;94510.03;5098136;28;20048;-49
2021/01/03 07:21:45;;;;;;;20.73;16.77;;;;;;;20.51;28.36;94494.25;5085450;28;20036;-51
2021/01/03 07:24:29;;;;;;;23.00;16.08;;;;;;;20.06;29.29;94507.97;5088465;28;20056;-49
2021/01/03 07:27:33;;;;;;;19.33;15.98;;;;;;;20.22;28.70;94479.53;5076259;28;20397;-46
2021/01/03 07:30:03;;;;;;;19.55;16.15;;;;;;;20.48;28.71;94507.47;5076269;28;20056;-51
2021/01/03 07:32:38;;;;;;;21.45;17.60;;;;;;;20.69;28.06;94507.94;5084776;28;20053;-49
2021/01/03 07:35:29;;;;;;;24.27;18.77;;;;;;;20.48;28.45;94496.84;5076196;28;20055;-49
2021/01/03 07:38:24;;;;;;;22.92;18.15;;;;;;;20.13;29.80;94497.53;5108107;28;20058;-51
2021/01/03 07:41:07;;;;;;;22.20;17.58;;;;;;;20.23;29.42;94491.69;5116099;28;20063;-49
2021/01/03 07:44:16;;;;;;;22.83;17.25;;;;;;;20.63;28.68;94504.03;5116243;28;20047;-49
2021/01/03 07:46:56;;;;;;;23.35;18.98;;;;;;;20.28;29.34;94499.38;5108044;28;20462;-48
2021/01/03 07:49:39;;;;;;;20.90;17.45;;;;;;;20.87;28.50;94498.47;5098368;28;20450;-49
2021/01/03 07:52:18;;;;;;;;;;;;;;;20.61;29.41;94511.56;5116723;28;20567;-48
2021/01/03 07:54:53;;;;;;;22.50;18.27;;;;;;;20.71;29.35;94510.25;5116472;28;19923;-53
2021/01/03 07:57:26;;;;;;;21.65;17.40;;;;;;;20.43;29.77;94507.72;5116155;28;20055;-50
2021/01/03 07:59:54;;;;;;;;;;;;;;;20.98;28.68;94508.56;5116444;28;20040;-50
2021/01/03 08:02:29;;;;;;;24.40;18.23;;;;;;;20.99;28.97;94510.09;5097865;28;19920;-50
2021/01/03 08:04:58;;;;;;;21.42;18.10;;;;;;;20.72;30.00;94523.19;5116099;28;20480;-48
2021/01/03 08:07:26;;;;;;;21.05;17.73;;;;;;;22.14;27.08;94519.94;5091491;28;20041;-52
2021/01/03 08:09:53;;;;;;;21.92;19.60;;;;;;;20.98;29.18;94514.63;5075137;28;20048;-51
2021/01/03 08:12:48;;;;;;;22.92;18.83;;;;;;;20.91;29.48;94551.69;5070248;28;20070;-48
2021/01/03 08:15:36;;;;;;;23.58;18.23;;;;;;;21.69;28.14;94536.59;5075069;28;20063;-51
2021/01/03 08:18:16;;;;;;;21.48;17.67;;;;;;;21.03;29.10;94559.53;5095311;28;20079;-48
2021/01/03 08:20:43;;;;;;;23.95;19.60;;;;;;;20.92;29.09;94554.00;5076934;28;20051;-50
2021/01/03 08:23:23;;;;;;;22.10;19.73;;;;;;;20.94;29.98;94558.97;5077352;28;20059;-48
2021/01/03 08:26:12;;;;;;;19.45;17.30;;;;;;;20.89;29.42;94569.88;5095210;28;20071;-56
2021/01/03 08:29:10;;;;;;;21.75;18.50;;;;;;;20.72;29.61;94571.00;5077462;28;20036;-48
2021/01/03 08:31:48;;;;;;;25.00;21.77;;;;;;;20.77;30.13;94581.34;5096482;28;20051;-52
2021/01/03 08:34:26;;;;;;;24.50;20.88;;;;;;;20.83;30.14;94577.34;5097967;28;20044;-47
2021/01/03 08:36:54;;;;;;;22.50;20.20;;;;;;;20.91;30.03;94573.72;5106184;28;20063;-46
2021/01/03 08:39:23;;;;;;;21.30;18.35;;;;;;;20.92;29.93;94580.56;5094593;28;20370;-51
2021/01/03 08:41:58;;;;;;;23.13;19.73;;;;;;;20.86;29.95;94576.66;5094063;28;20051;-48
2021/01/03 08:44:31;;;;;;;28.38;19.98;;;;;;;20.95;29.94;94579.09;5094329;28;20043;-49
2021/01/03 08:47:05;;;;;;;25.15;20.67;;;;;;;20.66;30.55;94582.25;5068890;28;20070;-49
2021/01/03 08:49:33;;;;;;;32.58;25.65;;;;;;;20.39;30.96;94575.88;5090858;28;20052;-49
2021/01/03 08:52:29;;;;;;;30.77;25.60;;;;;;;20.25;31.40;94573.63;5083678;28;20067;-50
2021/01/03 08:55:26;;;;;;;31.08;26.88;;;;;;;20.01;31.53;94577.97;5077944;28;20055;-52
2021/01/03 08:57:59;;;;;;;33.20;27.30;;;;;;;20.47;30.92;94581.03;5096315;28;20055;-46
2021/01/03 09:00:35;;;;;;;36.50;30.48;;;;;;;20.45;30.86;94582.50;5096020;28;20385;-46
2021/01/03 09:03:05;;;;;;;31.25;27.77;;;;;;;20.40;31.38;94588.03;5114547;28;20058;-44
2021/01/03 09:05:35;;;;;;;37.42;30.63;;;;;;;20.75;30.56;94596.09;5096835;28;20441;-45
2021/01/03 09:08:05;;;;;;;38.97;29.83;;;;;;;20.37;31.27;94596.69;5095715;28;20050;-57
2021/01/03 09:10:36;;;;;;;34.85;29.38;;;;;;;20.68;30.76;94596.72;5076576;28;20059;-50
2021/01/03 09:13:07;;;;;;;35.88;28.70;;;;;;;20.52;31.08;94593.28;5075364;28;20048;-55
2021/01/03 09:15:38;;;;;;;32.92;27.10;;;;;;;20.59;31.19;94593.47;5076616;28;20447;-56
2021/01/03 09:18:27;;;;;;;29.73;26.15;;;;;;;20.74;30.95;94583.94;5077315;28;20051;-45
2021/01/03 09:21:07;;;;;;;32.03;28.48;;;;;;;20.75;31.03;94575.63;5056435;28;20053;-46
2021/01/03 09:23:41;;;;;;;35.53;27.83;;;;;;;20.94;30.74;94575.69;5072568;28;20048;-51
2021/01/03 09:26:09;;;;;;;35.35;29.80;;;;;;;20.78;31.05;94572.28;5071586;28;20395;-49
2021/01/03 09:28:39;;;;;;;39.63;30.85;;;;;;;20.16;32.14;94573.03;5070434;28;20048;-54
2021/01/03 09:31:20;;;;;;;43.90;35.17;;;;;;;20.39;31.37;94576.66;5085603;28;20047;-52
2021/01/03 09:33:51;;;;;;;51.97;40.08;;;;;;;19.81;32.80;94570.25;5089367;28;20056;-51
2021/01/03 09:37:10;;;;;;;69.35;48.03;;;;;;;20.38;32.52;94571.69;5078969;28;20055;-52
2021/01/03 09:40:01;;;;;;;65.03;44.55;;;;;;;20.20;32.47;94564.03;4995053;28;20057;-54
2021/01/03 09:42:33;;;;;;;56.03;39.50;;;;;;;20.20;32.79;94572.00;5011337;28;20049;-53
2021/01/03 09:45:25;;;;;;;25.73;21.95;;;;;;;21.40;30.31;94577.81;5081987;28;20090;-52
2021/01/03 09:47:52;;;;;;;26.38;22.83;;;;;;;21.09;31.03;94583.97;5080700;28;20044;-51
2021/01/03 09:50:25;;;;;;;25.13;22.35;;;;;;;20.82;31.94;94569.72;5076008;28;20052;-51
2021/01/03 09:53:19;;;;;;;28.15;24.38;;;;;;;20.85;31.75;94556.50;5088579;28;20454;-52
2021/01/03 09:55:58;;;;;;;26.55;23.67;;;;;;;21.37;31.15;94563.34;5093916;28;20051;-51
2021/01/03 09:58:39;;;;;;;29.02;24.52;;;;;;;21.38;30.85;94567.53;5075965;28;20052;-52
2021/01/03 10:01:21;;;;;;;28.05;24.75;;;;;;;21.46;31.02;94565.78;5114037;28;20051;-54
2021/01/03 10:03:48;;;;;;;31.40;23.13;;;;;;;21.69;30.92;94568.50;5113859;28;20125;-53
2021/01/03 10:06:29;;;;;;;23.33;20.80;;;;;;;21.41;30.22;94569.50;5114124;28;20277;-59
2021/01/03 10:09:31;;;;;;;25.30;21.55;;;;;;;21.45;30.78;94557.03;5076090;28;20052;-55
2021/01/03 10:11:59;;;;;;;26.35;20.60;;;;;;;21.44;30.62;94565.34;5074764;28;20057;-52
2021/01/03 10:14:34;;;;;;;24.10;21.13;;;;;;;22.09;30.68;94555.56;5093741;28;20362;-54
2021/01/03 10:17:18;;;;;;;23.48;20.70;;;;;;;22.76;30.36;94539.91;5094178;28;20281;-55
2021/01/03 10:19:46;;;;;;;24.40;20.45;;;;;;;23.19;30.13;94545.88;5055650;28;20068;-53
2021/01/03 10:22:40;;;;;;;21.60;17.67;;;;;;;23.25;29.41;94549.75;5076242;28;20064;-53
2021/01/03 10:25:11;;;;;;;20.80;18.52;;;;;;;23.02;29.60;94557.81;5093790;28;20040;-53
2021/01/03 10:27:38;;;;;;;17.98;15.80;;;;;;;22.82;28.81;94544.97;5093471;28;20048;-57
2021/01/03 10:30:08;;;;;;;16.58;14.55;;;;;;;22.43;29.19;94534.47;5081398;28;20055;-61
2021/01/03 10:32:36;;;;;;;21.00;16.85;;;;;;;22.55;28.70;94546.81;5089016;28;20054;-59
2021/01/03 10:35:07;;;;;;;17.83;14.82;;;;;;;22.44;28.80;94534.09;5093685;28;20047;-68
2021/01/03 10:37:35;;;;;;;17.58;14.52;;;;;;;22.22;29.30;94537.56;5106383;28;20055;-68
2021/01/03 10:40:02;;;;;;;17.92;15.13;;;;;;;22.03;29.53;94541.00;5106971;28;20056;-68
2021/01/03 10:42:29;;;;;;;17.23;15.43;;;;;;;22.21;29.58;94535.25;5078955;28;20365;-68
2021/01/03 10:44:57;;;;;;;18.90;16.90;;;;;;;21.78;29.76;94534.47;5097263;28;20078;-67
2021/01/03 10:47:24;;;;;;;24.17;21.33;;;;;;;22.03;29.49;94525.03;5117424;28;20056;-68
2021/01/03 10:49:51;;;;;;;19.23;16.65;;;;;;;22.01;29.37;94532.59;5116313;28;20497;-68
2021/01/03 10:52:18;;;;;;;41.55;34.55;;;;;;;22.18;30.61;94525.31;5117335;28;20055;-67
2021/01/03 10:54:45;;;;;;;39.90;34.78;;;;;;;21.85;31.56;94518.63;5117462;28;20051;-67
2021/01/03 10:57:12;;;;;;;44.92;37.88;;;;;;;21.92;31.33;94512.66;5117532;28;20055;-68
2021/01/03 10:59:39;;;;;;;42.88;35.10;;;;;;;21.47;31.55;94511.47;5107340;28;20398;-68
2021/01/03 11:02:06;;;;;;;39.13;34.15;;;;;;;21.60;31.29;94522.72;5077205;28;20060;-68
2021/01/03 11:04:33;;;;;;;41.50;34.35;;;;;;;21.59;31.56;94521.94;5096935;28;20513;-68
2021/01/03 11:07:01;;;;;;;42.65;33.55;;;;;;;21.42;31.88;94504.53;5104329;28;20067;-68
2021/01/03 11:09:34;;;;;;;39.35;31.95;;;;;;;21.33;32.01;94511.94;5096259;28;20044;-70
2021/01/03 11:12:11;;;;;;;36.15;31.40;;;;;;;21.51;31.65;94510.41;5096789;28;20052;-68
2021/01/03 11:14:39;;;;;;;35.97;32.05;;;;;;;21.43;31.19;94508.75;5111285;28;20047;-67
2021/01/03 11:17:07;;;;;;;35.03;29.40;;;;;;;21.54;31.15;94493.75;5116985;28;20058;-68
2021/01/03 11:19:35;;;;;;;38.97;31.23;;;;;;;22.03;30.88;94503.72;5116601;28;20043;-67
2021/01/03 11:22:06;;;;;;;35.15;29.15;;;;;;;22.35;31.07;94501.59;5103800;28;20059;-68
2021/01/03 11:24:33;;;;;;;37.47;29.42;;;;;;;21.90;31.34;94504.28;5076269;28;20052;-67
2021/01/03 11:27:02;;;;;;;35.45;30.48;;;;;;;22.26;31.24;94500.31;5076282;28;20048;-68
2021/01/03 11:29:30;;;;;;;34.38;28.65;;;;;;;21.94;31.33;94500.53;5099579;28;20440;-68
2021/01/03 11:31:59;;;;;;;31.33;26.85;;;;;;;21.74;31.40;94496.38;5116870;28;20051;-67
2021/01/03 11:34:29;;;;;;;30.38;26.13;;;;;;;22.28;30.66;94498.06;5116692;28;20056;-68
2021/01/03 11:37:00;;;;;;;30.80;27.25;;;;;;;22.18;31.04;94499.44;5116367;28;20050;-67
2021/01/03 11:39:28;;;;;;;28.98;25.45;;;;;;;22.31;30.50;94486.72;5115869;28;20044;-67
2021/01/03 11:41:57;;;;;;;25.83;22.63;;;;;;;21.68;30.12;94482.59;5116876;28;20050;-67
2021/01/03 11:44:25;;;;;;;26.08;22.27;;;;;;;22.20;29.53;94485.78;5116555;28;20055;-68
2021/01/03 11:47:07;;;;;;;30.80;26.13;;;;;;;22.18;30.03;94496.03;5091145;28;20053;-67
2021/01/03 11:49:35;;;;;;;27.52;22.70;;;;;;;22.02;30.31;94486.22;5080348;28;20051;-67